sensor_id;sensor_type;location;lat;lon;timestamp;P1;durP1;ratioP1;P2;durP2;ratioP2
27367;SDS011;14839;48.106;11.618;2023-03-14T05:02:16;0.20;;;0.10;;
27367;SDS011;14839;48.106;11.618;2023-03-14T05:04:42;0.20;;;0.10;;
27367;SDS011;14839;48.106;11.618;2023-03-14T05:07:07;0.20;;;0.10;;
27367;SDS011;14839;48.106;11.618;2023-03-14T05:09:33;0.20;;;0.10;;
27367;SDS011;14839;48.106;11.618;2023-03-14T05:11:59;4.60;;;0.27;;
27367;SDS011;14839;48.106;11.618;2023-03-14T05:14:24;0.20;;;0.10;;
27367;SDS011;14839;48.106;11.618;2023-03-14T05:16:50;0.20;;;0.10;;
27367;SDS011;14839;48.106;11.618;2023-03-14T05:19:15;0.20;;;0.10;;
27367;SDS011;14839;48.106;11.618;2023-03-14T05:21:41;0.20;;;0.10;;
27367;SDS011;14839;48.106;11.618;2023-03-14T05:24:06;0.20;;;0.10;;
27367;SDS011;14839;48.106;11.618;2023-03-14T05:26:32;0.20;;;0.10;;
27367;SDS011;14839;48.106;11.618;2023-03-14T05:28:58;0.20;;;0.10;;
27367;SDS011;14839;48.106;11.618;2023-03-14T05:31:23;0.20;;;0.10;;
27367;SDS011;14839;48.106;11.618;2023-03-14T05:33:49;0.20;;;0.10;;
27367;SDS011;14839;48.106;11.618;2023-03-14T05:36:14;0.20;;;0.10;;
27367;SDS011;14839;48.106;11.618;2023-03-14T05:38:40;0.20;;;0.10;;
27367;SDS011;14839;48.106;11.618;2023-03-14T05:41:06;0.20;;;0.10;;
27367;SDS011;14839;48.106;11.618;2023-03-14T05:43:32;0.20;;;0.10;;
27367;SDS011;14839;48.106;11.618;2023-03-14T05:45:57;0.20;;;0.10;;
27367;SDS011;14839;48.106;11.618;2023-03-14T05:48:23;0.20;;;0.10;;
27367;SDS011;14839;48.106;11.618;2023-03-14T05:50:54;0.20;;;0.10;;
27367;SDS011;14839;48.106;11.618;2023-03-14T05:53:20;0.20;;;0.10;;
27367;SDS011;14839;48.106;11.618;2023-03-14T05:55:46;0.20;;;0.10;;
27367;SDS011;14839;48.106;11.618;2023-03-14T05:58:11;0.20;;;0.10;;
27367;SDS011;14839;48.106;11.618;2023-03-14T06:00:37;0.20;;;0.13;;
27367;SDS011;14839;48.106;11.618;2023-03-14T06:03:02;0.20;;;0.10;;
27367;SDS011;14839;48.106;11.618;2023-03-14T06:05:28;0.20;;;0.10;;
27367;SDS011;14839;48.106;11.618;2023-03-14T06:07:54;0.20;;;0.10;;
27367;SDS011;14839;48.106;11.618;2023-03-14T06:10:19;0.20;;;0.20;;
27367;SDS011;14839;48.106;11.618;2023-03-14T06:12:45;0.30;;;0.30;;
27367;SDS011;14839;48.106;11.618;2023-03-14T06:15:10;0.20;;;0.10;;
27367;SDS011;14839;48.106;11.618;2023-03-14T06:17:36;0.20;;;0.10;;
27367;SDS011;14839;48.106;11.618;2023-03-14T06:20:02;0.20;;;0.10;;
27367;SDS011;14839;48.106;11.618;2023-03-14T06:22:28;0.20;;;0.10;;
27367;SDS011;14839;48.106;11.618;2023-03-14T06:24:53;0.20;;;0.10;;
27367;SDS011;14839;48.106;11.618;2023-03-14T06:27:19;0.20;;;0.10;;
27367;SDS011;14839;48.106;11.618;2023-03-14T06:29:44;0.20;;;0.10;;
27367;SDS011;14839;48.106;11.618;2023-03-14T06:32:10;0.20;;;0.10;;
27367;SDS011;14839;48.106;11.618;2023-03-14T06:34:36;0.20;;;0.10;;
27367;SDS011;14839;48.106;11.618;2023-03-14T06:37:01;0.20;;;0.10;;
27367;SDS011;14839;48.106;11.618;2023-03-14T06:39:27;0.20;;;0.10;;
27367;SDS011;14839;48.106;11.618;2023-03-14T06:41:52;0.20;;;0.10;;
27367;SDS011;14839;48.106;11.618;2023-03-14T06:44:18;0.20;;;0.10;;
27367;SDS011;14839;48.106;11.618;2023-03-14T06:46:44;0.20;;;0.10;;
27367;SDS011;14839;48.106;11.618;2023-03-14T06:49:09;0.20;;;0.10;;
27367;SDS011;14839;48.106;11.618;2023-03-14T06:51:35;0.20;;;0.10;;
27367;SDS011;14839;48.106;11.618;2023-03-14T06:54:00;0.20;;;0.10;;
27367;SDS011;14839;48.106;11.618;2023-03-14T06:56:26;0.20;;;0.10;;
27367;SDS011;14839;48.106;11.618;2023-03-14T06:58:51;0.20;;;0.17;;
27367;SDS011;14839;48.106;11.618;2023-03-14T07:01:21;0.20;;;0.10;;
27367;SDS011;14839;48.106;11.618;2023-03-14T07:03:49;0.30;;;0.10;;
27367;SDS011;14839;48.106;11.618;2023-03-14T07:06:15;0.20;;;0.10;;
27367;SDS011;14839;48.106;11.618;2023-03-14T07:08:41;0.20;;;0.10;;
27367;SDS011;14839;48.106;11.618;2023-03-14T07:11:06;0.20;;;0.10;;
27367;SDS011;14839;48.106;11.618;2023-03-14T07:13:32;0.20;;;0.10;;
27367;SDS011;14839;48.106;11.618;2023-03-14T07:15:58;0.20;;;0.10;;
27367;SDS011;14839;48.106;11.618;2023-03-14T07:18:23;6.67;;;2.60;;
27367;SDS011;14839;48.106;11.618;2023-03-14T07:20:50;12.90;;;4.57;;
27367;SDS011;14839;48.106;11.618;2023-03-14T07:23:16;5.20;;;2.10;;
27367;SDS011;14839;48.106;11.618;2023-03-14T07:25:41;4.00;;;1.33;;
27367;SDS011;14839;48.106;11.618;2023-03-14T07:28:07;11.83;;;2.37;;
27367;SDS011;14839;48.106;11.618;2023-03-14T07:30:32;5.70;;;1.67;;
27367;SDS011;14839;48.106;11.618;2023-03-14T07:32:58;1.67;;;1.57;;
27367;SDS011;14839;48.106;11.618;2023-03-14T07:35:23;4.70;;;1.70;;
27367;SDS011;14839;48.106;11.618;2023-03-14T07:37:49;8.63;;;1.87;;
27367;SDS011;14839;48.106;11.618;2023-03-14T07:40:15;0.67;;;0.67;;
27367;SDS011;14839;48.106;11.618;2023-03-14T07:42:41;1.87;;;1.57;;
27367;SDS011;14839;48.106;11.618;2023-03-14T07:45:08;3.53;;;1.70;;
27367;SDS011;14839;48.106;11.618;2023-03-14T07:47:35;4.00;;;1.90;;
27367;SDS011;14839;48.106;11.618;2023-03-14T07:50:01;4.47;;;2.17;;
27367;SDS011;14839;48.106;11.618;2023-03-14T07:52:27;3.20;;;1.37;;
27367;SDS011;14839;48.106;11.618;2023-03-14T07:54:53;1.03;;;0.77;;
27367;SDS011;14839;48.106;11.618;2023-03-14T07:57:18;0.20;;;0.20;;
27367;SDS011;14839;48.106;11.618;2023-03-14T07:59:44;0.20;;;0.10;;
27367;SDS011;14839;48.106;11.618;2023-03-14T08:02:10;0.30;;;0.20;;
27367;SDS011;14839;48.106;11.618;2023-03-14T08:04:37;0.20;;;0.10;;
27367;SDS011;14839;48.106;11.618;2023-03-14T08:07:03;0.30;;;0.30;;
27367;SDS011;14839;48.106;11.618;2023-03-14T08:09:29;0.20;;;0.10;;
27367;SDS011;14839;48.106;11.618;2023-03-14T08:11:55;0.27;;;0.20;;
27367;SDS011;14839;48.106;11.618;2023-03-14T08:14:20;0.20;;;0.10;;
27367;SDS011;14839;48.106;11.618;2023-03-14T08:16:48;0.20;;;0.10;;
27367;SDS011;14839;48.106;11.618;2023-03-14T08:19:14;0.40;;;0.20;;
27367;SDS011;14839;48.106;11.618;2023-03-14T08:21:40;0.20;;;0.10;;
27367;SDS011;14839;48.106;11.618;2023-03-14T08:24:05;0.40;;;0.20;;
27367;SDS011;14839;48.106;11.618;2023-03-14T08:26:31;0.20;;;0.10;;
27367;SDS011;14839;48.106;11.618;2023-03-14T08:28:57;0.20;;;0.10;;
27367;SDS011;14839;48.106;11.618;2023-03-14T08:31:22;0.30;;;0.30;;
27367;SDS011;14839;48.106;11.618;2023-03-14T08:33:48;0.20;;;0.10;;
27367;SDS011;14839;48.106;11.618;2023-03-14T08:36:14;0.20;;;0.10;;
27367;SDS011;14839;48.106;11.618;2023-03-14T08:38:39;1.03;;;0.20;;
27367;SDS011;14839;48.106;11.618;2023-03-14T08:41:07;0.40;;;0.20;;
27367;SDS011;14839;48.106;11.618;2023-03-14T08:43:33;0.20;;;0.10;;
27367;SDS011;14839;48.106;11.618;2023-03-14T08:46:00;0.30;;;0.20;;
27367;SDS011;14839;48.106;11.618;2023-03-14T08:48:26;0.20;;;0.10;;
27367;SDS011;14839;48.106;11.618;2023-03-14T08:50:54;0.23;;;0.10;;
27367;SDS011;14839;48.106;11.618;2023-03-14T08:53:20;0.20;;;0.10;;
27367;SDS011;14839;48.106;11.618;2023-03-14T08:55:47;0.20;;;0.10;;
27367;SDS011;14839;48.106;11.618;2023-03-14T08:58:17;0.20;;;0.10;;
27367;SDS011;14839;48.106;11.618;2023-03-14T09:00:42;0.20;;;0.20;;
27367;SDS011;14839;48.106;11.618;2023-03-14T09:03:08;0.20;;;0.10;;
27367;SDS011;14839;48.106;11.618;2023-03-14T09:05:33;0.20;;;0.10;;
27367;SDS011;14839;48.106;11.618;2023-03-14T09:07:59;0.20;;;0.20;;
27367;SDS011;14839;48.106;11.618;2023-03-14T09:10:25;0.20;;;0.10;;
27367;SDS011;14839;48.106;11.618;2023-03-14T09:12:51;0.37;;;0.33;;
27367;SDS011;14839;48.106;11.618;2023-03-14T09:15:16;0.20;;;0.20;;
27367;SDS011;14839;48.106;11.618;2023-03-14T09:17:42;0.20;;;0.10;;
27367;SDS011;14839;48.106;11.618;2023-03-14T09:20:09;0.20;;;0.10;;
27367;SDS011;14839;48.106;11.618;2023-03-14T09:22:35;0.20;;;0.10;;
27367;SDS011;14839;48.106;11.618;2023-03-14T09:25:05;0.20;;;0.10;;
27367;SDS011;14839;48.106;11.618;2023-03-14T09:27:31;0.20;;;0.10;;
27367;SDS011;14839;48.106;11.618;2023-03-14T09:29:56;0.20;;;0.10;;
27367;SDS011;14839;48.106;11.618;2023-03-14T09:32:22;0.20;;;0.10;;
27367;SDS011;14839;48.106;11.618;2023-03-14T09:34:47;0.73;;;0.20;;
27367;SDS011;14839;48.106;11.618;2023-03-14T09:37:13;0.20;;;0.10;;
27367;SDS011;14839;48.106;11.618;2023-03-14T09:39:41;0.20;;;0.10;;
27367;SDS011;14839;48.106;11.618;2023-03-14T09:42:07;0.20;;;0.10;;
27367;SDS011;14839;48.106;11.618;2023-03-14T09:44:42;0.20;;;0.10;;
27367;SDS011;14839;48.106;11.618;2023-03-14T09:47:18;0.20;;;0.13;;
27367;SDS011;14839;48.106;11.618;2023-03-14T09:49:45;0.20;;;0.20;;
27367;SDS011;14839;48.106;11.618;2023-03-14T09:52:24;0.20;;;0.13;;
27367;SDS011;14839;48.106;11.618;2023-03-14T09:57:24;0.20;;;0.20;;
27367;SDS011;14839;48.106;11.618;2023-03-14T09:59:51;0.20;;;0.10;;
27367;SDS011;14839;48.106;11.618;2023-03-14T10:02:25;0.30;;;0.20;;
27367;SDS011;14839;48.106;11.618;2023-03-14T10:04:56;0.20;;;0.20;;
27367;SDS011;14839;48.106;11.618;2023-03-14T10:07:28;0.20;;;0.10;;
27367;SDS011;14839;48.106;11.618;2023-03-14T10:09:57;0.20;;;0.10;;
27367;SDS011;14839;48.106;11.618;2023-03-14T10:12:30;0.20;;;0.10;;
27367;SDS011;14839;48.106;11.618;2023-03-14T10:14:58;0.20;;;0.10;;
27367;SDS011;14839;48.106;11.618;2023-03-14T10:17:41;0.97;;;0.87;;
27367;SDS011;14839;48.106;11.618;2023-03-14T10:20:28;0.30;;;0.30;;
27367;SDS011;14839;48.106;11.618;2023-03-14T10:23:03;0.20;;;0.10;;
27367;SDS011;14839;48.106;11.618;2023-03-14T10:25:35;0.20;;;0.10;;
27367;SDS011;14839;48.106;11.618;2023-03-14T10:28:03;0.20;;;0.10;;
27367;SDS011;14839;48.106;11.618;2023-03-14T10:30:35;0.20;;;0.10;;
27367;SDS011;14839;48.106;11.618;2023-03-14T10:33:31;0.20;;;0.10;;
27367;SDS011;14839;48.106;11.618;2023-03-14T10:36:04;0.20;;;0.10;;
27367;SDS011;14839;48.106;11.618;2023-03-14T10:38:31;0.20;;;0.20;;
27367;SDS011;14839;48.106;11.618;2023-03-14T10:41:01;0.20;;;0.10;;
27367;SDS011;14839;48.106;11.618;2023-03-14T10:43:31;0.20;;;0.10;;
27367;SDS011;14839;48.106;11.618;2023-03-14T10:46:00;0.20;;;0.20;;
27367;SDS011;14839;48.106;11.618;2023-03-14T10:48:32;0.43;;;0.30;;
27367;SDS011;14839;48.106;11.618;2023-03-14T10:53:34;0.20;;;0.20;;
27367;SDS011;14839;48.106;11.618;2023-03-14T10:56:04;0.20;;;0.10;;
27367;SDS011;14839;48.106;11.618;2023-03-14T10:58:31;0.20;;;0.10;;
27367;SDS011;14839;48.106;11.618;2023-03-14T11:09:38;0.20;;;0.10;;
27367;SDS011;14839;48.106;11.618;2023-03-14T11:12:27;0.20;;;0.10;;
27367;SDS011;14839;48.106;11.618;2023-03-14T11:15:11;0.20;;;0.20;;
27367;SDS011;14839;48.106;11.618;2023-03-14T11:23:21;0.47;;;0.30;;
27367;SDS011;14839;48.106;11.618;2023-03-14T11:25:56;0.20;;;0.10;;
27367;SDS011;14839;48.106;11.618;2023-03-14T11:28:38;0.20;;;0.10;;
27367;SDS011;14839;48.106;11.618;2023-03-14T11:31:11;0.30;;;0.30;;
27367;SDS011;14839;48.106;11.618;2023-03-14T11:33:46;0.20;;;0.10;;
27367;SDS011;14839;48.106;11.618;2023-03-14T11:36:16;0.20;;;0.10;;
27367;SDS011;14839;48.106;11.618;2023-03-14T11:38:48;0.20;;;0.10;;
27367;SDS011;14839;48.106;11.618;2023-03-14T11:41:37;0.20;;;0.10;;
27367;SDS011;14839;48.106;11.618;2023-03-14T11:44:04;0.20;;;0.10;;
27367;SDS011;14839;48.106;11.618;2023-03-14T11:47:14;0.20;;;0.20;;
27367;SDS011;14839;48.106;11.618;2023-03-14T11:52:31;0.20;;;0.10;;
27367;SDS011;14839;48.106;11.618;2023-03-14T11:55:07;0.20;;;0.10;;
27367;SDS011;14839;48.106;11.618;2023-03-14T11:57:39;0.20;;;0.10;;
27367;SDS011;14839;48.106;11.618;2023-03-14T12:00:18;0.20;;;0.10;;
27367;SDS011;14839;48.106;11.618;2023-03-14T12:02:48;0.20;;;0.10;;
27367;SDS011;14839;48.106;11.618;2023-03-14T12:08:03;0.20;;;0.10;;
27367;SDS011;14839;48.106;11.618;2023-03-14T12:11:05;0.20;;;0.10;;
27367;SDS011;14839;48.106;11.618;2023-03-14T12:13:51;0.20;;;0.10;;
27367;SDS011;14839;48.106;11.618;2023-03-14T12:18:50;0.20;;;0.10;;
27367;SDS011;14839;48.106;11.618;2023-03-14T12:21:17;0.20;;;0.10;;
27367;SDS011;14839;48.106;11.618;2023-03-14T12:23:50;0.20;;;0.10;;
27367;SDS011;14839;48.106;11.618;2023-03-14T12:26:22;0.20;;;0.10;;
27367;SDS011;14839;48.106;11.618;2023-03-14T12:34:03;0.20;;;0.10;;
27367;SDS011;14839;48.106;11.618;2023-03-14T12:42:17;0.20;;;0.10;;
27367;SDS011;14839;48.106;11.618;2023-03-14T12:48:04;0.20;;;0.10;;
27367;SDS011;14839;48.106;11.618;2023-03-14T12:50:44;0.20;;;0.20;;
27367;SDS011;14839;48.106;11.618;2023-03-14T12:53:36;0.40;;;0.37;;
27367;SDS011;14839;48.106;11.618;2023-03-14T12:56:25;0.20;;;0.10;;
27367;SDS011;14839;48.106;11.618;2023-03-14T12:59:21;0.20;;;0.20;;
27367;SDS011;14839;48.106;11.618;2023-03-14T13:02:23;0.20;;;0.20;;
27367;SDS011;14839;48.106;11.618;2023-03-14T13:04:59;0.20;;;0.10;;
27367;SDS011;14839;48.106;11.618;2023-03-14T13:07:34;0.20;;;0.10;;
27367;SDS011;14839;48.106;11.618;2023-03-14T13:15:41;0.20;;;0.10;;
27367;SDS011;14839;48.106;11.618;2023-03-14T13:18:18;0.20;;;0.10;;
27367;SDS011;14839;48.106;11.618;2023-03-14T13:23:24;0.20;;;0.10;;
27367;SDS011;14839;48.106;11.618;2023-03-14T13:25:51;0.20;;;0.10;;
27367;SDS011;14839;48.106;11.618;2023-03-14T13:28:17;0.20;;;0.10;;
27367;SDS011;14839;48.106;11.618;2023-03-14T13:30:44;0.20;;;0.10;;
27367;SDS011;14839;48.106;11.618;2023-03-14T13:33:21;0.20;;;0.10;;
27367;SDS011;14839;48.106;11.618;2023-03-14T13:35:58;0.20;;;0.20;;
27367;SDS011;14839;48.106;11.618;2023-03-14T13:38:26;0.20;;;0.20;;
27367;SDS011;14839;48.106;11.618;2023-03-14T13:40:57;0.20;;;0.20;;
27367;SDS011;14839;48.106;11.618;2023-03-14T13:43:29;0.20;;;0.10;;
27367;SDS011;14839;48.106;11.618;2023-03-14T13:48:48;0.20;;;0.10;;
27367;SDS011;14839;48.106;11.618;2023-03-14T13:51:19;0.20;;;0.10;;
27367;SDS011;14839;48.106;11.618;2023-03-14T13:53:53;0.20;;;0.10;;
27367;SDS011;14839;48.106;11.618;2023-03-14T13:56:21;0.20;;;0.10;;
27367;SDS011;14839;48.106;11.618;2023-03-14T13:58:48;0.20;;;0.10;;
27367;SDS011;14839;48.106;11.618;2023-03-14T14:01:33;0.20;;;0.10;;
27367;SDS011;14839;48.106;11.618;2023-03-14T14:04:05;0.20;;;0.10;;
27367;SDS011;14839;48.106;11.618;2023-03-14T14:06:37;0.20;;;0.20;;
27367;SDS011;14839;48.106;11.618;2023-03-14T14:09:12;0.20;;;0.10;;
27367;SDS011;14839;48.106;11.618;2023-03-14T14:11:59;0.20;;;0.10;;
27367;SDS011;14839;48.106;11.618;2023-03-14T14:17:11;0.20;;;0.10;;
27367;SDS011;14839;48.106;11.618;2023-03-14T14:19:41;0.20;;;0.10;;
27367;SDS011;14839;48.106;11.618;2023-03-14T14:22:10;0.20;;;0.10;;
27367;SDS011;14839;48.106;11.618;2023-03-14T14:24:36;0.20;;;0.10;;
27367;SDS011;14839;48.106;11.618;2023-03-14T14:27:19;0.20;;;0.10;;
27367;SDS011;14839;48.106;11.618;2023-03-14T14:30:36;0.20;;;0.10;;
27367;SDS011;14839;48.106;11.618;2023-03-14T14:32:42;0.20;;;0.10;;
27367;SDS011;14839;48.106;11.618;2023-03-14T14:35:10;0.20;;;0.20;;
27367;SDS011;14839;48.106;11.618;2023-03-14T14:37:51;0.20;;;0.10;;
27367;SDS011;14839;48.106;11.618;2023-03-14T14:40:21;0.20;;;0.10;;
27367;SDS011;14839;48.106;11.618;2023-03-14T14:42:49;0.20;;;0.10;;
27367;SDS011;14839;48.106;11.618;2023-03-14T14:45:22;0.20;;;0.10;;
27367;SDS011;14839;48.106;11.618;2023-03-14T14:52:56;0.20;;;0.10;;
27367;SDS011;14839;48.106;11.618;2023-03-14T14:55:28;0.20;;;0.10;;
27367;SDS011;14839;48.106;11.618;2023-03-14T14:57:58;0.20;;;0.10;;
27367;SDS011;14839;48.106;11.618;2023-03-14T15:00:39;0.20;;;0.10;;
27367;SDS011;14839;48.106;11.618;2023-03-14T15:03:10;0.20;;;0.10;;
27367;SDS011;14839;48.106;11.618;2023-03-14T15:05:39;0.20;;;0.10;;
27367;SDS011;14839;48.106;11.618;2023-03-14T15:08:09;0.20;;;0.10;;
27367;SDS011;14839;48.106;11.618;2023-03-14T15:10:35;0.23;;;0.10;;
27367;SDS011;14839;48.106;11.618;2023-03-14T15:13:00;0.20;;;0.10;;
27367;SDS011;14839;48.106;11.618;2023-03-14T15:15:26;0.20;;;0.10;;
27367;SDS011;14839;48.106;11.618;2023-03-14T15:17:52;0.20;;;0.10;;
27367;SDS011;14839;48.106;11.618;2023-03-14T15:20:17;0.27;;;0.17;;
27367;SDS011;14839;48.106;11.618;2023-03-14T15:22:44;0.20;;;0.10;;
27367;SDS011;14839;48.106;11.618;2023-03-14T15:25:11;0.20;;;0.10;;
27367;SDS011;14839;48.106;11.618;2023-03-14T15:27:37;0.20;;;0.10;;
27367;SDS011;14839;48.106;11.618;2023-03-14T15:30:13;0.40;;;0.40;;
27367;SDS011;14839;48.106;11.618;2023-03-14T15:32:40;0.20;;;0.10;;
27367;SDS011;14839;48.106;11.618;2023-03-14T15:35:06;0.20;;;0.10;;
27367;SDS011;14839;48.106;11.618;2023-03-14T15:37:33;0.30;;;0.27;;
27367;SDS011;14839;48.106;11.618;2023-03-14T15:40:00;0.20;;;0.20;;
27367;SDS011;14839;48.106;11.618;2023-03-14T15:42:27;0.20;;;0.10;;
27367;SDS011;14839;48.106;11.618;2023-03-14T15:44:53;0.20;;;0.10;;
27367;SDS011;14839;48.106;11.618;2023-03-14T15:47:19;0.20;;;0.20;;
27367;SDS011;14839;48.106;11.618;2023-03-14T15:49:44;0.50;;;0.20;;
27367;SDS011;14839;48.106;11.618;2023-03-14T15:52:10;0.20;;;0.10;;
27367;SDS011;14839;48.106;11.618;2023-03-14T15:54:36;0.20;;;0.10;;
27367;SDS011;14839;48.106;11.618;2023-03-14T15:57:01;0.20;;;0.10;;
27367;SDS011;14839;48.106;11.618;2023-03-14T15:59:27;0.20;;;0.10;;
27367;SDS011;14839;48.106;11.618;2023-03-14T16:01:53;0.20;;;0.10;;
27367;SDS011;14839;48.106;11.618;2023-03-14T16:04:18;0.20;;;0.10;;
27367;SDS011;14839;48.106;11.618;2023-03-14T16:06:44;0.20;;;0.10;;
27367;SDS011;14839;48.106;11.618;2023-03-14T16:09:10;0.20;;;0.10;;
27367;SDS011;14839;48.106;11.618;2023-03-14T16:11:37;0.83;;;0.30;;
27367;SDS011;14839;48.106;11.618;2023-03-14T16:14:03;0.20;;;0.10;;
27367;SDS011;14839;48.106;11.618;2023-03-14T16:16:28;0.53;;;0.20;;
27367;SDS011;14839;48.106;11.618;2023-03-14T16:18:54;0.20;;;0.10;;
27367;SDS011;14839;48.106;11.618;2023-03-14T16:21:19;0.20;;;0.10;;
27367;SDS011;14839;48.106;11.618;2023-03-14T16:23:46;0.20;;;0.10;;
27367;SDS011;14839;48.106;11.618;2023-03-14T16:26:13;0.20;;;0.10;;
27367;SDS011;14839;48.106;11.618;2023-03-14T16:28:40;0.20;;;0.10;;
27367;SDS011;14839;48.106;11.618;2023-03-14T16:31:08;0.20;;;0.10;;
27367;SDS011;14839;48.106;11.618;2023-03-14T16:33:35;0.20;;;0.10;;
27367;SDS011;14839;48.106;11.618;2023-03-14T16:36:03;0.20;;;0.20;;
27367;SDS011;14839;48.106;11.618;2023-03-14T16:38:32;0.50;;;0.33;;
27367;SDS011;14839;48.106;11.618;2023-03-14T16:41:00;0.20;;;0.10;;
27367;SDS011;14839;48.106;11.618;2023-03-14T16:43:29;0.30;;;0.23;;
27367;SDS011;14839;48.106;11.618;2023-03-14T16:45:59;0.20;;;0.20;;
27367;SDS011;14839;48.106;11.618;2023-03-14T16:48:28;0.20;;;0.10;;
27367;SDS011;14839;48.106;11.618;2023-03-14T16:50:54;0.20;;;0.10;;
27367;SDS011;14839;48.106;11.618;2023-03-14T16:53:21;0.20;;;0.10;;
27367;SDS011;14839;48.106;11.618;2023-03-14T16:55:48;0.20;;;0.10;;
27367;SDS011;14839;48.106;11.618;2023-03-14T16:58:15;0.20;;;0.10;;
27367;SDS011;14839;48.106;11.618;2023-03-14T17:00:43;0.20;;;0.20;;
27367;SDS011;14839;48.106;11.618;2023-03-14T17:03:10;0.20;;;0.10;;
27367;SDS011;14839;48.106;11.618;2023-03-14T17:05:36;0.20;;;0.10;;
27367;SDS011;14839;48.106;11.618;2023-03-14T17:08:02;0.20;;;0.10;;
27367;SDS011;14839;48.106;11.618;2023-03-14T17:10:28;0.20;;;0.10;;
27367;SDS011;14839;48.106;11.618;2023-03-14T17:12:53;0.20;;;0.10;;
27367;SDS011;14839;48.106;11.618;2023-03-14T17:15:19;0.20;;;0.20;;
27367;SDS011;14839;48.106;11.618;2023-03-14T17:17:45;0.30;;;0.30;;
27367;SDS011;14839;48.106;11.618;2023-03-14T17:20:10;0.20;;;0.10;;
27367;SDS011;14839;48.106;11.618;2023-03-14T17:22:36;0.27;;;0.20;;
27367;SDS011;14839;48.106;11.618;2023-03-14T17:25:02;0.20;;;0.10;;
27367;SDS011;14839;48.106;11.618;2023-03-14T17:27:28;0.40;;;0.30;;
27367;SDS011;14839;48.106;11.618;2023-03-14T17:29:53;0.20;;;0.10;;
27367;SDS011;14839;48.106;11.618;2023-03-14T17:32:19;0.20;;;0.10;;
27367;SDS011;14839;48.106;11.618;2023-03-14T17:34:45;0.83;;;0.63;;
27367;SDS011;14839;48.106;11.618;2023-03-14T17:37:11;0.50;;;0.33;;
27367;SDS011;14839;48.106;11.618;2023-03-14T17:39:37;0.63;;;0.40;;
27367;SDS011;14839;48.106;11.618;2023-03-14T17:42:03;0.20;;;0.10;;
27367;SDS011;14839;48.106;11.618;2023-03-14T17:44:29;0.20;;;0.10;;
27367;SDS011;14839;48.106;11.618;2023-03-14T17:46:56;0.20;;;0.10;;
27367;SDS011;14839;48.106;11.618;2023-03-14T17:49:22;0.30;;;0.10;;
27367;SDS011;14839;48.106;11.618;2023-03-14T17:51:48;0.20;;;0.10;;
27367;SDS011;14839;48.106;11.618;2023-03-14T17:54:13;0.20;;;0.20;;
27367;SDS011;14839;48.106;11.618;2023-03-14T17:56:39;0.20;;;0.10;;
27367;SDS011;14839;48.106;11.618;2023-03-14T17:59:08;0.20;;;0.10;;
27367;SDS011;14839;48.106;11.618;2023-03-14T18:01:34;0.20;;;0.10;;
27367;SDS011;14839;48.106;11.618;2023-03-14T18:04:00;0.30;;;0.20;;
27367;SDS011;14839;48.106;11.618;2023-03-14T18:06:26;0.20;;;0.10;;
27367;SDS011;14839;48.106;11.618;2023-03-14T18:08:54;0.20;;;0.10;;
27367;SDS011;14839;48.106;11.618;2023-03-14T18:11:20;0.73;;;0.20;;
27367;SDS011;14839;48.106;11.618;2023-03-14T18:13:47;0.20;;;0.10;;
27367;SDS011;14839;48.106;11.618;2023-03-14T18:16:12;0.40;;;0.30;;
27367;SDS011;14839;48.106;11.618;2023-03-14T18:18:38;0.20;;;0.10;;
27367;SDS011;14839;48.106;11.618;2023-03-14T18:21:05;0.20;;;0.10;;
27367;SDS011;14839;48.106;11.618;2023-03-14T18:23:32;0.20;;;0.10;;
27367;SDS011;14839;48.106;11.618;2023-03-14T18:25:58;0.20;;;0.10;;
27367;SDS011;14839;48.106;11.618;2023-03-14T18:28:24;0.20;;;0.10;;
27367;SDS011;14839;48.106;11.618;2023-03-14T18:30:51;0.20;;;0.10;;
27367;SDS011;14839;48.106;11.618;2023-03-14T18:33:18;0.20;;;0.10;;
27367;SDS011;14839;48.106;11.618;2023-03-14T18:35:47;0.40;;;0.20;;
27367;SDS011;14839;48.106;11.618;2023-03-14T18:38:15;0.20;;;0.10;;
27367;SDS011;14839;48.106;11.618;2023-03-14T18:40:41;0.30;;;0.27;;
27367;SDS011;14839;48.106;11.618;2023-03-14T18:43:06;0.57;;;0.33;;
27367;SDS011;14839;48.106;11.618;2023-03-14T18:45:32;0.20;;;0.20;;
27367;SDS011;14839;48.106;11.618;2023-03-14T18:48:07;0.20;;;0.20;;
27367;SDS011;14839;48.106;11.618;2023-03-14T18:50:42;0.70;;;0.30;;
27367;SDS011;14839;48.106;11.618;2023-03-14T18:53:07;0.20;;;0.10;;
27367;SDS011;14839;48.106;11.618;2023-03-14T18:55:33;0.20;;;0.20;;
27367;SDS011;14839;48.106;11.618;2023-03-14T18:57:59;1.77;;;0.57;;
27367;SDS011;14839;48.106;11.618;2023-03-14T19:00:24;5.20;;;2.20;;
27367;SDS011;14839;48.106;11.618;2023-03-14T19:02:51;0.20;;;0.10;;
27367;SDS011;14839;48.106;11.618;2023-03-14T19:05:16;1.60;;;0.67;;
27367;SDS011;14839;48.106;11.618;2023-03-14T19:07:42;0.40;;;0.20;;
27367;SDS011;14839;48.106;11.618;2023-03-14T19:10:08;0.30;;;0.30;;
27367;SDS011;14839;48.106;11.618;2023-03-14T19:12:35;0.97;;;0.67;;
27367;SDS011;14839;48.106;11.618;2023-03-14T19:15:00;0.47;;;0.30;;
27367;SDS011;14839;48.106;11.618;2023-03-14T19:17:26;0.33;;;0.20;;
27367;SDS011;14839;48.106;11.618;2023-03-14T19:19:51;0.20;;;0.10;;
27367;SDS011;14839;48.106;11.618;2023-03-14T19:22:17;0.20;;;0.10;;
27367;SDS011;14839;48.106;11.618;2023-03-14T19:24:43;0.23;;;0.23;;
27367;SDS011;14839;48.106;11.618;2023-03-14T19:27:09;0.43;;;0.43;;
27367;SDS011;14839;48.106;11.618;2023-03-14T19:29:34;0.50;;;0.40;;
27367;SDS011;14839;48.106;11.618;2023-03-14T19:32:06;0.20;;;0.10;;
27367;SDS011;14839;48.106;11.618;2023-03-14T19:34:32;0.40;;;0.30;;
27367;SDS011;14839;48.106;11.618;2023-03-14T19:36:58;0.40;;;0.33;;
27367;SDS011;14839;48.106;11.618;2023-03-14T19:39:24;0.20;;;0.10;;
27367;SDS011;14839;48.106;11.618;2023-03-14T19:41:49;0.20;;;0.10;;
27367;SDS011;14839;48.106;11.618;2023-03-14T19:44:21;0.40;;;0.40;;
27367;SDS011;14839;48.106;11.618;2023-03-14T19:46:50;1.00;;;0.57;;
27367;SDS011;14839;48.106;11.618;2023-03-14T19:49:16;0.20;;;0.20;;
27367;SDS011;14839;48.106;11.618;2023-03-14T19:51:41;0.20;;;0.10;;
27367;SDS011;14839;48.106;11.618;2023-03-14T19:54:07;0.47;;;0.40;;
27367;SDS011;14839;48.106;11.618;2023-03-14T19:56:32;0.87;;;0.53;;
27367;SDS011;14839;48.106;11.618;2023-03-14T19:58:58;0.20;;;0.20;;
27367;SDS011;14839;48.106;11.618;2023-03-14T20:01:26;0.20;;;0.10;;
27367;SDS011;14839;48.106;11.618;2023-03-14T20:03:52;0.40;;;0.40;;
27367;SDS011;14839;48.106;11.618;2023-03-14T20:06:19;0.63;;;0.60;;
27367;SDS011;14839;48.106;11.618;2023-03-14T20:08:45;0.23;;;0.20;;
27367;SDS011;14839;48.106;11.618;2023-03-14T20:11:11;0.20;;;0.10;;
27367;SDS011;14839;48.106;11.618;2023-03-14T20:13:37;0.20;;;0.20;;
27367;SDS011;14839;48.106;11.618;2023-03-14T20:16:03;9.83;;;0.50;;
27367;SDS011;14839;48.106;11.618;2023-03-14T20:18:30;0.83;;;0.70;;
27367;SDS011;14839;48.106;11.618;2023-03-14T20:20:56;0.20;;;0.13;;
27367;SDS011;14839;48.106;11.618;2023-03-14T20:23:21;1.40;;;0.40;;
27367;SDS011;14839;48.106;11.618;2023-03-14T20:25:54;0.30;;;0.30;;
27367;SDS011;14839;48.106;11.618;2023-03-14T20:28:21;2.50;;;0.87;;
27367;SDS011;14839;48.106;11.618;2023-03-14T20:30:46;0.27;;;0.27;;
27367;SDS011;14839;48.106;11.618;2023-03-14T20:33:12;0.20;;;0.13;;
27367;SDS011;14839;48.106;11.618;2023-03-14T20:35:40;0.20;;;0.10;;
27367;SDS011;14839;48.106;11.618;2023-03-14T20:38:06;0.20;;;0.10;;
27367;SDS011;14839;48.106;11.618;2023-03-14T20:40:33;0.40;;;0.40;;
27367;SDS011;14839;48.106;11.618;2023-03-14T20:42:58;0.80;;;0.70;;